Time;durP1;ratioP1;P1;durP2;ratioP2;P2;SDS_P1;SDS_P2;PMS_P1;PMS_P2;Temp;Humidity;BMP_temperature;BMP_pressure;BME280_temperature;BME280_humidity;BME280_pressure;Samples;Min_cycle;Max_cycle;Signal;HPM_P1;HPM_P2
2022/03/08 00:02:10;;;;;;;23.75;13.15;;;;;;;-1.19;100.00;101091.38;5078564;28;20071;-86
2022/03/08 00:04:35;;;;;;;30.92;14.77;;;;;;;-1.15;100.00;101093.25;5078710;28;20436;-86
2022/03/08 00:07:01;;;;;;;26.55;14.68;;;;;;;-1.17;100.00;101094.03;5076473;28;20016;-86
2022/03/08 00:09:27;;;;;;;24.77;13.52;;;;;;;-1.16;100.00;101086.22;5076906;28;20067;-86
2022/03/08 00:11:53;;;;;;;28.83;13.77;;;;;;;-1.12;100.00;101087.22;5077504;28;20020;-87
2022/03/08 00:14:19;;;;;;;91.97;38.45;;;;;;;-1.08;100.00;101078.59;5074970;28;20020;-84
2022/03/08 00:16:44;;;;;;;70.45;30.42;;;;;;;-1.06;100.00;101082.16;5075002;28;20021;-85
2022/03/08 00:19:10;;;;;;;43.60;20.15;;;;;;;-1.02;100.00;101077.88;5076721;28;20050;-86
2022/03/08 00:21:35;;;;;;;31.67;15.70;;;;;;;-0.98;100.00;101084.13;5075559;28;20074;-86
2022/03/08 00:24:00;;;;;;;30.27;14.57;;;;;;;-0.95;100.00;101078.97;5076859;28;20048;-86
2022/03/08 00:26:26;;;;;;;31.08;15.60;;;;;;;-0.86;100.00;101078.34;5075477;28;20029;-86
2022/03/08 00:28:51;;;;;;;37.75;18.05;;;;;;;-0.84;100.00;101076.66;5076602;28;20024;-85
2022/03/08 00:31:17;;;;;;;56.30;24.83;;;;;;;-0.81;100.00;101072.41;5077226;28;20028;-86
2022/03/08 00:33:42;;;;;;;73.93;31.73;;;;;;;-0.78;100.00;101069.00;5077181;28;20027;-85
2022/03/08 00:36:08;;;;;;;80.50;36.78;;;;;;;-0.78;100.00;101066.38;5076849;28;20028;-86
2022/03/08 00:38:34;;;;;;;68.57;31.35;;;;;;;-0.77;100.00;101067.28;5076297;28;20127;-85
2022/03/08 00:41:00;;;;;;;45.58;20.55;;;;;;;-0.77;100.00;101065.50;5078789;28;20064;-85
2022/03/08 00:43:25;;;;;;;32.65;16.25;;;;;;;-0.79;100.00;101067.19;5077311;28;20024;-86
2022/03/08 00:45:50;;;;;;;30.20;15.40;;;;;;;-0.81;100.00;101075.03;5077254;28;20032;-86
2022/03/08 00:48:16;;;;;;;34.90;16.38;;;;;;;-0.87;100.00;101061.72;5075306;28;20385;-86
2022/03/08 00:50:42;;;;;;;34.25;16.65;;;;;;;-0.93;100.00;101061.56;5075995;28;20047;-86
2022/03/08 00:53:07;;;;;;;29.73;14.02;;;;;;;-1.02;100.00;101055.19;5075773;28;20028;-86
2022/03/08 00:55:34;;;;;;;32.38;16.10;;;;;;;-1.04;100.00;101051.63;5076408;28;20028;-86
2022/03/08 00:57:59;;;;;;;31.30;15.90;;;;;;;-1.13;100.00;101053.97;5076367;28;20033;-86
2022/03/08 01:00:27;;;;;;;48.08;23.83;;;;;;;-1.20;100.00;101055.50;5075502;28;20032;-86
2022/03/08 01:02:52;;;;;;;47.95;24.13;;;;;;;-1.25;100.00;101046.63;5076993;28;20032;-85
2022/03/08 01:05:18;;;;;;;41.92;22.85;;;;;;;-1.28;100.00;101050.03;5076322;28;20020;-86
2022/03/08 01:07:44;;;;;;;42.97;21.40;;;;;;;-1.30;100.00;101046.47;5077208;28;20107;-87
2022/03/08 01:10:15;;;;;;;38.72;20.42;;;;;;;-1.33;100.00;101046.38;5077645;28;20020;-85
2022/03/08 01:12:41;;;;;;;31.88;15.73;;;;;;;-1.46;100.00;101051.22;5076721;28;20599;-86
2022/03/08 01:15:07;;;;;;;30.17;15.07;;;;;;;-1.63;100.00;101047.19;5077998;28;20052;-86
2022/03/08 01:17:33;;;;;;;27.80;14.02;;;;;;;-1.74;100.00;101054.69;5078536;28;20052;-86
2022/03/08 01:19:58;;;;;;;28.58;14.75;;;;;;;-1.82;100.00;101049.19;5077634;28;20032;-86
2022/03/08 01:22:24;;;;;;;29.35;13.23;;;;;;;-1.84;100.00;101049.13;5078547;28;20024;-86
2022/03/08 01:24:49;;;;;;;27.25;13.55;;;;;;;-1.82;100.00;101051.81;5073898;28;20024;-86
2022/03/08 01:27:15;;;;;;;24.08;13.48;;;;;;;-1.81;100.00;101050.97;5074812;28;20366;-85
2022/03/08 01:29:40;;;;;;;28.92;14.02;;;;;;;-1.82;100.00;101049.19;5077886;28;20025;-86
2022/03/08 01:32:06;;;;;;;28.10;13.25;;;;;;;-1.85;100.00;101049.06;5079687;28;20021;-86
2022/03/08 01:34:31;;;;;;;26.77;14.15;;;;;;;-1.89;100.00;101044.59;5078884;28;20092;-86
2022/03/08 01:36:56;;;;;;;27.50;14.43;;;;;;;-1.93;100.00;101044.47;5080196;28;20055;-86
2022/03/08 01:39:22;;;;;;;28.90;14.63;;;;;;;-1.93;100.00;101038.34;5079880;28;20037;-86
2022/03/08 01:41:48;;;;;;;29.02;14.95;;;;;;;-2.00;100.00;101032.03;5080394;28;20024;-86
2022/03/08 01:44:13;;;;;;;29.58;14.23;;;;;;;-1.96;100.00;101039.13;5078735;28;20020;-85
2022/03/08 01:46:40;;;;;;;27.17;13.38;;;;;;;-2.13;100.00;101042.06;5080110;28;20027;-86
2022/03/08 01:49:07;;;;;;;29.55;14.90;;;;;;;-2.16;100.00;101036.72;5078911;28;20496;-86
2022/03/08 01:51:33;;;;;;;29.20;14.85;;;;;;;-2.15;100.00;101038.53;5079529;28;20036;-85
2022/03/08 01:53:58;;;;;;;29.00;14.55;;;;;;;-2.10;100.00;101035.16;5078821;28;20025;-86
2022/03/08 01:56:24;;;;;;;28.73;15.43;;;;;;;-2.14;100.00;101029.81;5084293;28;20047;-85
2022/03/08 01:58:49;;;;;;;29.85;13.85;;;;;;;-2.16;100.00;101023.66;5086175;28;20111;-86
2022/03/08 02:01:15;;;;;;;25.45;12.98;;;;;;;-2.17;100.00;101021.88;5089895;28;20024;-86
2022/03/08 02:03:40;;;;;;;24.77;12.88;;;;;;;-2.20;100.00;101019.16;5090754;28;20020;-86
2022/03/08 02:06:06;;;;;;;31.00;14.75;;;;;;;-2.21;100.00;101027.81;5090665;28;20025;-86
2022/03/08 02:08:31;;;;;;;27.88;13.85;;;;;;;-2.25;100.00;101026.84;5089953;28;20469;-86
2022/03/08 02:10:57;;;;;;;29.90;13.85;;;;;;;-2.25;100.00;101025.94;5087565;28;20028;-87
2022/03/08 02:13:25;;;;;;;29.30;13.10;;;;;;;-2.27;100.00;101027.63;5082653;28;20032;-86
2022/03/08 02:15:51;;;;;;;29.30;14.07;;;;;;;-2.30;100.00;101023.19;5082064;28;20116;-86
2022/03/08 02:18:17;;;;;;;26.98;14.02;;;;;;;-2.40;100.00;101021.97;5083460;28;20068;-87
2022/03/08 02:20:43;;;;;;;29.45;14.00;;;;;;;-2.42;100.00;101015.78;5082359;28;20028;-87
2022/03/08 02:23:08;;;;;;;26.20;12.40;;;;;;;-2.43;100.00;101016.63;5083372;28;20158;-87
2022/03/08 02:25:34;;;;;;;28.75;13.77;;;;;;;-2.48;100.00;101012.97;5082297;28;20024;-87
2022/03/08 02:27:59;;;;;;;30.23;13.85;;;;;;;-2.47;100.00;101014.72;5080793;28;20017;-87
2022/03/08 02:30:26;;;;;;;28.08;13.13;;;;;;;-2.49;100.00;101011.16;5082861;28;20025;-86
2022/03/08 02:32:52;;;;;;;29.38;13.73;;;;;;;-2.53;100.00;101014.50;5077276;28;20024;-87
2022/03/08 02:35:25;;;;;;;28.60;13.23;;;;;;;-2.53;100.00;101004.94;5074800;28;20035;-87
2022/03/08 02:37:54;;;;;;;27.13;13.85;;;;;;;-2.52;100.00;101008.44;5072809;28;20020;-85
2022/03/08 02:40:24;;;;;;;27.65;12.68;;;;;;;-2.51;100.00;101005.88;5073808;28;20021;-86
2022/03/08 02:42:52;;;;;;;26.40;12.38;;;;;;;-2.52;100.00;101009.31;5072447;28;20039;-86
2022/03/08 02:45:18;;;;;;;32.42;13.73;;;;;;;-2.51;100.00;101007.59;5072391;28;20503;-86
2022/03/08 02:47:47;;;;;;;27.42;13.32;;;;;;;-2.52;100.00;101008.44;5072439;28;20029;-85
2022/03/08 02:50:14;;;;;;;26.00;12.95;;;;;;;-2.55;100.00;101005.72;5072541;28;20025;-86
2022/03/08 02:52:41;;;;;;;28.15;12.95;;;;;;;-2.58;100.00;101002.16;5072530;28;20028;-86
2022/03/08 02:55:07;;;;;;;28.35;12.60;;;;;;;-2.55;100.00;101003.13;5074694;28;20496;-86
2022/03/08 02:57:33;;;;;;;27.08;13.30;;;;;;;-2.61;100.00;101002.06;5078257;28;20033;-84
2022/03/08 02:59:58;;;;;;;27.75;13.77;;;;;;;-2.59;100.00;101000.38;5079012;28;20025;-86
2022/03/08 03:02:24;;;;;;;31.05;13.45;;;;;;;-2.60;100.00;101006.44;5077872;28;20021;-86
2022/03/08 03:04:49;;;;;;;29.70;14.00;;;;;;;-2.60;100.00;100997.69;5076190;28;20389;-85
2022/03/08 03:07:15;;;;;;;34.60;14.88;;;;;;;-2.64;100.00;100996.72;5076629;28;20028;-85
2022/03/08 03:09:40;;;;;;;29.23;13.38;;;;;;;-2.64;100.00;100996.72;5076991;28;20059;-86
2022/03/08 03:12:06;;;;;;;30.00;14.50;;;;;;;-2.66;100.00;100992.25;5076397;28;20107;-85
2022/03/08 03:14:32;;;;;;;28.67;13.23;;;;;;;-2.66;100.00;100997.50;5076700;28;20032;-86
2022/03/08 03:17:00;;;;;;;27.70;13.40;;;;;;;-2.74;100.00;100994.59;5076636;28;20032;-83
2022/03/08 03:19:25;;;;;;;28.85;13.90;;;;;;;-2.74;100.00;100999.81;5077000;28;20024;-85
2022/03/08 03:21:51;;;;;;;29.65;13.65;;;;;;;-2.78;100.00;100997.94;5077701;28;20108;-86
2022/03/08 03:24:16;;;;;;;31.02;14.02;;;;;;;-2.77;100.00;100997.09;5077703;28;20037;-85
2022/03/08 03:26:42;;;;;;;33.13;14.75;;;;;;;-2.76;100.00;101009.34;5076224;28;20108;-85
2022/03/08 03:29:08;;;;;;;29.15;14.07;;;;;;;-2.82;100.00;100997.81;5077782;28;20433;-85
2022/03/08 03:31:33;;;;;;;29.40;14.07;;;;;;;-2.88;100.00;100994.06;5078501;28;20508;-85
2022/03/08 03:33:58;;;;;;;29.10;13.80;;;;;;;-2.92;100.00;101000.94;5082118;28;20492;-85
2022/03/08 03:36:24;;;;;;;31.30;13.38;;;;;;;-2.92;100.00;100999.22;5081161;28;20031;-86
2022/03/08 03:38:49;;;;;;;31.58;14.43;;;;;;;-2.91;100.00;101000.09;5080042;28;20032;-86
2022/03/08 03:41:14;;;;;;;32.95;13.93;;;;;;;-2.99;100.00;100998.94;5079637;28;20025;-84
2022/03/08 03:43:40;;;;;;;29.77;14.10;;;;;;;-3.06;100.00;100993.47;5076383;28;20020;-84
2022/03/08 03:46:05;;;;;;;27.98;13.55;;;;;;;-3.06;100.00;100996.06;5077637;28;20519;-85
2022/03/08 03:48:36;;;;;;;30.50;13.82;;;;;;;-3.05;100.00;101000.47;5077646;28;20028;-84
2022/03/08 03:51:02;;;;;;;33.20;14.05;;;;;;;-3.10;100.00;100990.69;5078493;28;20044;-85
2022/03/08 03:53:33;;;;;;;29.15;14.35;;;;;;;-3.09;100.00;100993.34;5076754;28;20024;-85
2022/03/08 03:55:58;;;;;;;29.67;12.88;;;;;;;-3.11;100.00;100989.78;5077795;28;20032;-85
2022/03/08 03:58:30;;;;;;;33.53;13.68;;;;;;;-3.16;100.00;100991.34;5077537;28;20389;-85
2022/03/08 04:01:04;;;;;;;30.88;14.60;;;;;;;-3.11;100.00;100995.00;5081603;28;20098;-85
2022/03/08 04:03:36;;;;;;;35.30;14.25;;;;;;;-3.09;100.00;100995.94;5078598;28;20043;-85
2022/03/08 04:06:12;;;;;;;33.20;14.30;;;;;;;-3.09;100.00;100982.88;5078856;28;20082;-85
2022/03/08 04:08:40;;;;;;;32.72;13.75;;;;;;;-3.11;100.00;100984.56;5076254;28;20200;-85
2022/03/08 04:11:16;;;;;;;30.95;13.93;;;;;;;-3.09;100.00;100987.25;5077292;28;20084;-86
2022/03/08 04:13:51;;;;;;;32.35;14.98;;;;;;;-3.10;100.00;100988.97;5076302;28;20029;-83
2022/03/08 04:16:22;;;;;;;36.65;16.15;;;;;;;-3.05;100.00;100999.59;5076041;28;20468;-86
2022/03/08 04:18:47;;;;;;;34.63;14.23;;;;;;;-3.05;100.00;100996.97;5076428;28;20075;-87
2022/03/08 04:21:16;;;;;;;28.85;13.77;;;;;;;-3.04;100.00;100991.78;5076579;28;20028;-86
2022/03/08 04:23:50;;;;;;;28.52;13.75;;;;;;;-3.05;100.00;100990.03;5076661;28;20024;-85
2022/03/08 04:26:21;;;;;;;33.67;14.48;;;;;;;-3.07;100.00;100993.41;5077492;28;20167;-85
2022/03/08 04:28:52;;;;;;;30.63;14.10;;;;;;;-3.09;100.00;100988.13;5076602;28;20032;-85
2022/03/08 04:31:21;;;;;;;35.53;15.38;;;;;;;-3.12;100.00;100988.03;5076577;28;20085;-84
2022/03/08 04:33:49;;;;;;;34.08;13.77;;;;;;;-3.13;100.00;100988.84;5078142;28;20028;-86
2022/03/08 04:36:26;;;;;;;31.73;14.05;;;;;;;-3.15;100.00;100986.19;5078246;28;20059;-85
2022/03/08 04:38:56;;;;;;;37.95;14.95;;;;;;;-3.17;100.00;100986.97;5078677;28;20115;-87
2022/03/08 04:41:28;;;;;;;31.75;14.60;;;;;;;-3.18;100.00;100993.00;5079019;28;20020;-86
2022/03/08 04:43:53;;;;;;;30.42;13.18;;;;;;;-3.18;100.00;100985.16;5076024;28;20034;-86
2022/03/08 04:46:35;;;;;;;34.70;14.30;;;;;;;-3.18;100.00;100993.00;5075227;28;20111;-86
2022/03/08 04:49:07;;;;;;;32.75;15.18;;;;;;;-3.18;100.00;100998.22;5074923;28;20025;-87
2022/03/08 04:51:35;;;;;;;33.13;15.55;;;;;;;-3.16;100.00;100993.94;5075559;28;20078;-86
2022/03/08 04:54:12;;;;;;;31.60;14.70;;;;;;;-3.17;100.00;101003.50;5075777;28;20048;-87
2022/03/08 04:56:47;;;;;;;33.90;14.73;;;;;;;-3.20;100.00;101000.78;5076066;28;20102;-86
2022/03/08 04:59:24;;;;;;;36.17;14.95;;;;;;;-3.20;100.00;100999.91;5076884;28;20088;-86
2022/03/08 05:01:50;;;;;;;29.88;14.40;;;;;;;-3.23;100.00;101008.50;5077655;28;20025;-86
2022/03/08 05:04:29;;;;;;;;;;;;;;;;;;;;;
2022/03/08 05:06:55;;;;;;;35.70;15.30;;;;;;;-3.25;100.00;101013.66;5076927;28;20385;-85
2022/03/08 05:09:23;;;;;;;32.17;14.02;;;;;;;-3.26;100.00;101004.06;5076978;28;20529;-87
2022/03/08 05:11:51;;;;;;;32.60;15.90;;;;;;;-3.30;100.00;101009.97;5075191;28;20476;-85
2022/03/08 05:14:17;;;;;;;37.25;14.70;;;;;;;-3.32;100.00;101000.28;5075061;28;20021;-86
2022/03/08 05:16:42;;;;;;;32.33;14.38;;;;;;;-3.32;100.00;101010.75;5075377;28;20082;-85
2022/03/08 05:19:20;;;;;;;35.47;14.98;;;;;;;-3.33;100.00;101008.97;5074569;28;20026;-87
2022/03/08 05:21:45;;;;;;;33.63;13.75;;;;;;;-3.31;100.00;100997.75;5075513;28;20523;-87
2022/03/08 05:24:11;;;;;;;29.73;13.73;;;;;;;-3.36;100.00;101004.53;5074419;28;20028;-86
2022/03/08 05:26:44;;;;;;;30.00;13.60;;;;;;;-3.37;100.00;101007.97;5074961;28;20044;-86
2022/03/08 05:29:20;;;;;;;36.35;15.95;;;;;;;-3.38;100.00;101008.81;5075139;28;20024;-87
2022/03/08 05:31:52;;;;;;;30.92;13.77;;;;;;;-3.43;100.00;101007.72;5074188;28;20112;-87
2022/03/08 05:34:22;;;;;;;30.33;13.35;;;;;;;-3.43;100.00;101007.72;5073643;28;20039;-85
2022/03/08 05:36:48;;;;;;;32.50;13.70;;;;;;;-3.45;100.00;101009.41;5075594;28;20028;-86
2022/03/08 05:39:17;;;;;;;33.63;15.52;;;;;;;-3.48;100.00;101003.19;5076593;28;20037;-86
2022/03/08 05:41:42;;;;;;;31.42;13.90;;;;;;;-3.49;100.00;101004.06;5074249;28;20066;-87
2022/03/08 05:44:17;;;;;;;34.20;15.05;;;;;;;-3.49;100.00;101004.06;5075587;28;20020;-85
2022/03/08 05:46:45;;;;;;;34.17;15.27;;;;;;;-3.48;100.00;101000.59;5077537;28;20478;-88
2022/03/08 05:49:16;;;;;;;37.78;14.32;;;;;;;-3.49;100.00;101001.44;5075149;28;20020;-88
2022/03/08 05:51:42;;;;;;;37.72;14.52;;;;;;;-3.53;100.00;100999.53;5074006;28;20484;-87
2022/03/08 05:54:08;;;;;;;32.50;14.80;;;;;;;-3.53;100.00;101001.25;5073208;28;20037;-88
2022/03/08 05:56:39;;;;;;;29.67;14.10;;;;;;;-3.52;100.00;101000.41;5072979;28;20024;-89
2022/03/08 05:59:08;;;;;;;33.75;14.70;;;;;;;-3.55;100.00;101003.78;5073627;28;20028;-87
2022/03/08 06:01:39;;;;;;;38.30;15.00;;;;;;;-3.59;100.00;101007.13;5073213;28;20035;-87
2022/03/08 06:04:05;;;;;;;39.33;14.65;;;;;;;-3.56;100.00;101006.34;5073955;28;20025;-86
2022/03/08 06:06:42;;;;;;;33.55;15.63;;;;;;;-3.61;100.00;101003.56;5075625;28;20087;-86
2022/03/08 06:09:12;;;;;;;35.30;15.00;;;;;;;-3.67;100.00;101014.66;5074362;28;20517;-86
2022/03/08 06:12:03;;;;;;;32.03;14.20;;;;;;;-3.70;100.00;101014.53;5073770;28;20074;-85
2022/03/08 06:14:40;;;;;;;34.92;14.73;;;;;;;-3.73;100.00;101010.06;5074087;28;20032;-85
2022/03/08 06:17:06;;;;;;;35.20;15.15;;;;;;;-3.67;100.00;101013.75;5074402;28;20419;-87
2022/03/08 06:19:33;;;;;;;39.55;14.65;;;;;;;-3.60;100.00;101013.16;5074262;28;20081;-86
2022/03/08 06:21:58;;;;;;;36.33;15.30;;;;;;;-3.57;100.00;101013.28;5073116;28;20123;-87
2022/03/08 06:24:24;;;;;;;36.67;16.45;;;;;;;-3.53;100.00;101009.97;5073529;28;20121;-86
2022/03/08 06:26:49;;;;;;;34.80;17.48;;;;;;;-3.53;100.00;101017.78;5075258;28;20039;-87
2022/03/08 06:29:15;;;;;;;36.88;15.43;;;;;;;-3.53;100.00;101012.56;5074626;28;20024;-86
2022/03/08 06:31:43;;;;;;;38.10;15.32;;;;;;;-3.49;100.00;101014.50;5074717;28;20420;-85
2022/03/08 06:34:11;;;;;;;36.00;16.08;;;;;;;-3.43;100.00;101012.97;5074173;28;20029;-86
2022/03/08 06:36:39;;;;;;;38.53;16.15;;;;;;;-3.46;100.00;101020.66;5074068;28;20477;-87
2022/03/08 06:39:04;;;;;;;42.63;16.25;;;;;;;-3.42;100.00;101017.34;5072465;28;20032;-86
2022/03/08 06:41:32;;;;;;;38.58;16.65;;;;;;;-3.39;100.00;101020.97;5075458;28;20124;-86
2022/03/08 06:43:57;;;;;;;47.17;18.10;;;;;;;-3.35;100.00;101022.00;5075355;28;20020;-86
2022/03/08 06:46:23;;;;;;;39.97;16.75;;;;;;;-3.34;100.00;101018.53;5073168;28;20426;-87
2022/03/08 06:48:56;;;;;;;39.30;17.60;;;;;;;-3.30;100.00;101016.94;5073618;28;20473;-86
2022/03/08 06:51:29;;;;;;;39.22;17.60;;;;;;;-3.25;100.00;101021.50;5073669;28;20389;-87
2022/03/08 06:53:54;;;;;;;40.45;17.55;;;;;;;-3.23;100.00;101026.78;5072961;28;20024;-87
2022/03/08 06:56:20;;;;;;;38.63;16.13;;;;;;;-3.22;100.00;101023.34;5073169;28;20054;-86
2022/03/08 06:58:45;;;;;;;41.00;17.13;;;;;;;-3.21;100.00;101021.63;5073767;28;20028;-86
2022/03/08 07:01:18;;;;;;;42.92;19.52;;;;;;;-3.20;100.00;101021.69;5074171;28;20079;-87
2022/03/08 07:03:44;;;;;;;40.17;18.48;;;;;;;-3.12;100.00;101019.38;5073681;28;20481;-86
2022/03/08 07:06:10;;;;;;;48.13;20.63;;;;;;;-3.07;100.00;101023.06;5074802;28;20020;-86
2022/03/08 07:08:37;;;;;;;43.00;18.73;;;;;;;-2.97;100.00;101023.41;5075357;28;20082;-87
2022/03/08 07:11:04;;;;;;;44.50;19.40;;;;;;;-2.95;100.00;101022.63;5073166;28;20035;-87
2022/03/08 07:13:30;;;;;;;47.60;19.42;;;;;;;-2.89;100.00;101021.06;5072642;28;20035;-86
2022/03/08 07:15:55;;;;;;;48.88;20.58;;;;;;;-2.85;100.00;101029.06;5072993;28;20017;-86
2022/03/08 07:18:21;;;;;;;49.22;20.15;;;;;;;-2.76;100.00;101027.66;5073886;28;20028;-86
2022/03/08 07:20:46;;;;;;;42.92;18.98;;;;;;;-2.72;100.00;101019.97;5074488;28;20025;-86
2022/03/08 07:23:20;;;;;;;44.85;18.95;;;;;;;-2.61;100.00;101028.22;5074855;28;20024;-87
2022/03/08 07:25:50;;;;;;;43.10;17.95;;;;;;;-2.59;100.00;101018.69;5073870;28;20032;-86
2022/03/08 07:28:19;;;;;;;41.35;19.15;;;;;;;-2.49;100.00;101021.63;5074440;28;20067;-86
2022/03/08 07:30:56;;;;;;;37.85;17.80;;;;;;;-2.41;100.00;101025.41;5073664;28;20028;-86
2022/03/08 07:33:25;;;;;;;41.53;19.00;;;;;;;-2.39;100.00;101028.97;5073784;28;20025;-87
2022/03/08 07:35:50;;;;;;;37.90;17.90;;;;;;;-2.33;100.00;101027.41;5074017;28;20111;-86
2022/03/08 07:38:16;;;;;;;41.03;18.30;;;;;;;-2.27;100.00;101027.63;5073962;28;20048;-87
2022/03/08 07:40:47;;;;;;;38.58;18.17;;;;;;;-2.30;100.00;101023.19;5075965;28;20024;-86
2022/03/08 07:43:18;;;;;;;40.90;18.05;;;;;;;-2.22;100.00;101031.28;5078620;28;20458;-86
2022/03/08 07:45:46;;;;;;;41.90;18.17;;;;;;;-2.12;100.00;101016.81;5076370;28;20028;-86
2022/03/08 07:48:12;;;;;;;39.60;18.77;;;;;;;-2.00;100.00;101026.78;5076309;28;20055;-87
2022/03/08 07:50:40;;;;;;;37.50;18.15;;;;;;;-1.93;100.00;101026.16;5076959;28;20021;-86
2022/03/08 07:53:08;;;;;;;44.95;19.17;;;;;;;-1.87;100.00;101021.94;5079195;28;20025;-86
2022/03/08 07:55:37;;;;;;;38.90;18.13;;;;;;;-1.80;100.00;101013.47;5079224;28;20032;-86
2022/03/08 07:58:13;;;;;;;38.60;17.00;;;;;;;-1.70;100.00;101017.28;5080870;28;20020;-86
2022/03/08 08:00:42;;;;;;;34.03;16.80;;;;;;;-1.63;100.00;101021.00;5081297;28;20387;-86
2022/03/08 08:03:10;;;;;;;40.38;18.13;;;;;;;-1.54;100.00;101026.50;5079316;28;20385;-86
2022/03/08 08:05:37;;;;;;;36.20;17.45;;;;;;;-1.44;100.00;101029.44;5079889;28;20065;-87
2022/03/08 08:08:07;;;;;;;37.20;16.95;;;;;;;-1.41;100.00;101027.78;5079028;28;20488;-87
2022/03/08 08:10:37;;;;;;;41.00;17.58;;;;;;;-1.37;100.00;101020.94;5078940;28;20025;-86
2022/03/08 08:13:05;;;;;;;39.35;17.65;;;;;;;-1.31;100.00;101023.72;5078244;28;20028;-86
2022/03/08 08:15:36;;;;;;;35.78;16.83;;;;;;;-1.22;100.00;101027.47;5077226;28;20020;-86
2022/03/08 08:18:05;;;;;;;34.08;16.13;;;;;;;-1.12;100.00;101024.28;5078095;28;20030;-86
2022/03/08 08:20:30;;;;;;;35.03;17.60;;;;;;;-0.98;100.00;101022.06;5078102;28;20056;-87
2022/03/08 08:22:56;;;;;;;35.42;16.17;;;;;;;-0.96;100.00;101017.78;5075432;28;20444;-86
2022/03/08 08:25:22;;;;;;;36.30;16.58;;;;;;;-0.83;100.00;101021.66;5076690;28;20078;-87
2022/03/08 08:27:50;;;;;;;31.92;15.63;;;;;;;-0.71;100.00;101020.22;5076534;28;20073;-86
2022/03/08 08:30:15;;;;;;;35.13;16.50;;;;;;;-0.60;100.00;101023.16;5076803;28;20021;-86
2022/03/08 08:32:44;;;;;;;32.13;15.82;;;;;;;-0.53;100.00;101024.19;5077092;28;20073;-86
2022/03/08 08:35:11;;;;;;;34.15;15.85;;;;;;;-0.44;100.00;101023.56;5077368;28;20017;-86
2022/03/08 08:37:37;;;;;;;33.00;15.98;;;;;;;-0.33;100.00;101026.50;5078935;28;20157;-87
2022/03/08 08:40:07;;;;;;;34.08;16.42;;;;;;;-0.21;100.00;101026.81;5078798;28;20052;-86
2022/03/08 08:42:33;;;;;;;31.17;16.17;;;;;;;-0.12;100.00;101024.44;5078242;28;20476;-87
2022/03/08 08:44:58;;;;;;;32.53;15.55;;;;;;;-0.01;100.00;101019.47;5077190;28;20511;-86
2022/03/08 08:47:23;;;;;;;33.58;17.38;;;;;;;0.17;100.00;101014.63;5077798;28;20462;-86
2022/03/08 08:49:51;;;;;;;34.92;16.13;;;;;;;0.25;100.00;101015.72;5077704;28;20024;-87
2022/03/08 08:52:17;;;;;;;33.92;16.27;;;;;;;0.39;100.00;101017.75;5076077;28;20028;-85
2022/03/08 08:54:47;;;;;;;30.23;15.82;;;;;;;0.50;100.00;101016.28;5076450;28;20024;-86
2022/03/08 08:57:13;;;;;;;27.38;14.15;;;;;;;0.63;100.00;101003.44;5074337;28;20029;-85
2022/03/08 08:59:39;;;;;;;30.77;15.98;;;;;;;0.87;100.00;101011.00;5076096;28;20634;-86
2022/03/08 09:02:04;;;;;;;31.33;15.10;;;;;;;0.89;100.00;101011.00;5075427;28;20021;-86
2022/03/08 09:04:30;;;;;;;30.05;15.40;;;;;;;1.15;100.00;101010.69;5075286;28;20043;-86
2022/03/08 09:06:55;;;;;;;28.38;14.00;;;;;;;1.44;100.00;101006.88;5075541;28;20024;-86
2022/03/08 09:09:20;;;;;;;28.95;15.90;;;;;;;1.84;100.00;101006.72;5075193;28;20024;-86
2022/03/08 09:11:46;;;;;;;23.35;13.00;;;;;;;2.36;96.58;101004.94;5075036;28;20092;-87
2022/03/08 09:14:11;;;;;;;21.00;13.02;;;;;;;2.70;92.95;100999.28;5074957;28;20033;-87
2022/03/08 09:16:37;;;;;;;24.48;13.35;;;;;;;2.92;90.84;100994.28;5076403;28;20028;-87
2022/03/08 09:19:03;;;;;;;25.52;14.35;;;;;;;3.09;93.52;100988.34;5075110;28;20135;-87
2022/03/08 09:21:28;;;;;;;24.48;13.73;;;;;;;3.25;93.22;100992.03;5074409;28;20416;-87
2022/03/08 09:23:53;;;;;;;23.05;13.50;;;;;;;3.16;90.25;100995.47;5074218;28;20028;-86
2022/03/08 09:26:19;;;;;;;24.05;14.40;;;;;;;3.15;90.45;100995.44;5075785;28;20090;-87
2022/03/08 09:28:44;;;;;;;23.63;14.43;;;;;;;3.23;90.90;100984.13;5074456;28;20027;-86
2022/03/08 09:31:09;;;;;;;27.60;14.73;;;;;;;3.62;92.19;100980.09;5074456;28;20020;-87
2022/03/08 09:33:35;;;;;;;21.58;14.25;;;;;;;3.90;87.03;100983.91;5073115;28;20035;-87
2022/03/08 09:36:00;;;;;;;20.00;13.18;;;;;;;4.07;88.15;100987.56;5074786;28;20027;-87
2022/03/08 09:38:26;;;;;;;22.25;12.98;;;;;;;4.06;84.13;100978.75;5073933;28;20020;-86
2022/03/08 09:40:52;;;;;;;18.38;12.02;;;;;;;3.92;83.80;100973.34;5073290;28;20479;-87
2022/03/08 09:43:18;;;;;;;21.05;11.90;;;;;;;4.33;81.46;100984.25;5074743;28;20074;-87
2022/03/08 09:45:43;;;;;;;21.77;11.75;;;;;;;4.55;82.89;100982.63;5073799;28;20424;-87
2022/03/08 09:48:09;;;;;;;16.48;10.77;;;;;;;5.22;77.18;100976.78;5074217;28;20060;-86
2022/03/08 09:50:35;;;;;;;16.70;9.00;;;;;;;5.48;74.12;100973.31;5074767;28;20044;-87
2022/03/08 09:53:01;;;;;;;12.40;7.22;;;;;;;6.04;72.06;100972.47;5073377;28;20035;-87
2022/03/08 09:55:27;;;;;;;12.25;6.30;;;;;;;6.51;68.61;100974.25;5073575;28;20021;-85
2022/03/08 09:57:53;;;;;;;9.85;6.43;;;;;;;6.64;63.74;100968.91;5075053;28;20027;-87
2022/03/08 10:00:22;;;;;;;11.18;6.47;;;;;;;6.99;65.37;100959.94;5073429;28;20024;-87
2022/03/08 10:03:01;;;;;;;10.90;5.15;;;;;;;6.92;61.27;100958.19;5073731;28;20043;-87
2022/03/08 10:05:29;;;;;;;10.15;4.88;;;;;;;7.13;60.37;100957.22;5073031;28;20024;-87
2022/03/08 10:08:18;;;;;;;7.10;4.50;;;;;;;7.04;59.60;100952.81;5073274;28;20078;-88
2022/03/08 10:10:53;;;;;;;7.63;4.35;;;;;;;7.19;60.24;100956.28;5072700;28;20017;-88
2022/03/08 10:13:22;;;;;;;6.07;4.40;;;;;;;7.23;61.19;100959.81;5074879;28;20021;-87
2022/03/08 10:16:03;;;;;;;6.68;4.38;;;;;;;7.40;59.16;100959.72;5073345;28;20023;-87
2022/03/08 10:18:36;;;;;;;8.07;4.65;;;;;;;7.39;58.25;100955.31;5082829;28;20028;-87
2022/03/08 10:21:02;;;;;;;7.93;4.63;;;;;;;7.45;58.35;100949.94;5077290;28;20031;-87
2022/03/08 10:23:27;;;;;;;8.18;4.60;;;;;;;7.22;57.36;100956.28;5081592;28;20024;-88
2022/03/08 10:26:02;;;;;;;7.03;4.20;;;;;;;7.36;58.08;100950.91;5075636;28;20024;-87
2022/03/08 10:28:27;;;;;;;8.77;4.20;;;;;;;7.44;57.72;100948.19;5072819;28;20021;-88
2022/03/08 10:30:53;;;;;;;6.85;4.20;;;;;;;7.62;56.56;100940.09;5074157;28;20059;-87
2022/03/08 10:33:19;;;;;;;8.60;4.35;;;;;;;7.52;58.03;100939.28;5073796;28;20113;-87
2022/03/08 10:35:46;;;;;;;9.00;4.10;;;;;;;7.52;56.17;100932.19;5072726;28;20021;-88
2022/03/08 10:38:12;;;;;;;6.82;3.88;;;;;;;7.94;56.80;100931.84;5073820;28;20020;-87
2022/03/08 10:40:38;;;;;;;5.38;3.60;;;;;;;8.12;57.31;100929.94;5071989;28;20047;-87
2022/03/08 10:43:07;;;;;;;6.35;3.60;;;;;;;8.00;57.62;100935.38;5072679;28;20051;-88
2022/03/08 10:45:35;;;;;;;4.90;3.47;;;;;;;7.92;54.79;100923.03;5071933;28;20033;-87
2022/03/08 10:48:06;;;;;;;8.15;4.40;;;;;;;7.82;54.57;100926.66;5072067;28;20384;-86
2022/03/08 10:50:36;;;;;;;4.97;3.08;;;;;;;7.87;53.98;100930.16;5073533;28;20477;-87
2022/03/08 10:53:03;;;;;;;5.18;3.30;;;;;;;7.87;53.70;100919.50;5072812;28;20024;-87
2022/03/08 10:55:31;;;;;;;5.75;3.50;;;;;;;7.73;54.25;100930.25;5072163;28;20025;-87
2022/03/08 10:57:59;;;;;;;6.28;3.38;;;;;;;7.92;54.01;100922.13;5073107;28;20044;-87
2022/03/08 11:00:28;;;;;;;6.03;3.88;;;;;;;8.06;54.01;100930.00;5073816;28;20370;-86
2022/03/08 11:02:56;;;;;;;5.40;3.60;;;;;;;8.19;53.23;100921.91;5073754;28;20020;-87
2022/03/08 11:05:23;;;;;;;6.47;4.22;;;;;;;8.05;54.03;100917.59;5073658;28;20016;-87
2022/03/08 11:07:49;;;;;;;6.88;3.28;;;;;;;8.23;54.30;100924.50;5072213;28;20193;-88
2022/03/08 11:10:17;;;;;;;6.35;3.05;;;;;;;8.22;54.70;100922.72;5073609;28;20100;-88